Time;durP1;ratioP1;P1;durP2;ratioP2;P2;SDS_P1;SDS_P2;PMS_P1;PMS_P2;Temp;Humidity;BMP_temperature;BMP_pressure;BME280_temperature;BME280_humidity;BME280_pressure;Samples;Min_cycle;Max_cycle;Signal;HPM_P1;HPM_P2
2023/12/04 00:06:43;;;;;;;66.22;30.67;;;;;;;;;;6570549;23;20058;-96
2023/12/04 00:09:45;;;;;;;81.27;31.30;;;;;;;;;;6191519;28;20081;-96
2023/12/04 00:12:47;;;;;;;49.80;25.08;;;;;;;;;;6206614;28;20046;-95
2023/12/04 00:15:51;;;;;;;17.63;10.05;;;;;;;;;;6220544;28;20049;-95
2023/12/04 00:18:53;;;;;;;53.58;22.60;;;;;;;;;;6209621;28;20335;-96
2023/12/04 00:21:56;;;;;;;75.13;32.15;;;;;;;;;;6201863;28;20258;-96
2023/12/04 10:14:41;;;;;;;13.52;6.85;;;;;;;;;;6322677;23;20077;-96
2023/12/04 10:17:46;;;;;;;13.23;7.00;;;;;;;;;;6217570;28;20076;-96
2023/12/04 10:21:08;;;;;;;13.13;6.65;;;;;;;;;;6189804;28;20049;-96
2023/12/04 10:30:48;;;;;;;13.68;6.55;;;;;;;;;;6156999;28;20102;-96
2023/12/04 10:37:09;;;;;;;10.88;6.80;;;;;;;;;;6103498;29;20072;-96
2023/12/04 10:40:13;;;;;;;;;;;;;;;;;;6164667;28;20043;-96
2023/12/04 10:46:57;;;;;;;12.90;6.93;;;;;;;;;;6120632;28;20052;-96
2023/12/04 11:23:06;;;;;;;90.53;37.83;;;;;;;;;;6255696;22;20056;-96
2023/12/04 11:26:09;;;;;;;151.23;56.15;;;;;;;;;;6205945;28;20073;-96
2023/12/04 11:29:13;;;;;;;70.53;28.50;;;;;;;;;;6224430;28;20060;-96
2023/12/04 12:04:35;;;;;;;14.23;7.68;;;;;;;;;;6497956;23;20109;-96
2023/12/04 12:12:02;;;;;;;16.65;7.95;;;;;;;;;;6092918;29;20048;-96
2023/12/04 12:18:32;;;;;;;13.82;8.10;;;;;;;;;;6177994;28;20043;-96
2023/12/04 12:21:35;;;;;;;13.30;8.07;;;;;;;;;;6526407;22;20035;-96
2023/12/04 12:50:29;;;;;;;13.10;6.95;;;;;;;;;;6148451;28;20055;-96
2023/12/04 12:53:33;;;;;;;15.80;7.80;;;;;;;;;;6214650;28;20058;-96
2023/12/04 12:56:44;;;;;;;11.02;6.43;;;;;;;;;;6216910;28;20050;-96
2023/12/04 14:40:59;;;;;;;10.55;6.30;;;;;;;;;;6038512;29;20048;-96
2023/12/04 14:44:21;;;;;;;13.48;6.20;;;;;;;;;;6035208;29;20147;-96
2023/12/04 14:47:25;;;;;;;10.95;6.35;;;;;;;;;;6119508;29;20080;-96
2023/12/04 14:50:30;;;;;;;;;;;;;;;;;;6101719;29;20048;-96
2023/12/04 14:53:43;;;;;;;13.23;6.60;;;;;;;;;;6119645;29;19913;-96
2023/12/04 15:07:33;;;;;;;12.77;7.13;;;;;;;;;;6090836;29;20063;-96
2023/12/04 15:14:01;;;;;;;8.90;6.07;;;;;;;;;;6121437;29;20058;-96
2023/12/04 15:17:17;;;;;;;10.55;6.93;;;;;;;;;;6131720;28;20073;-96
2023/12/04 15:20:32;;;;;;;13.57;7.38;;;;;;;;;;6197993;28;20064;-96
2023/12/04 15:26:56;;;;;;;12.35;6.88;;;;;;;;;;6214606;28;20053;-96
2023/12/04 15:29:59;;;;;;;12.82;7.60;;;;;;;;;;6205588;28;20081;-96
2023/12/04 15:33:01;;;;;;;13.75;7.72;;;;;;;;;;6172042;28;20047;-96
2023/12/04 15:36:03;;;;;;;12.77;7.68;;;;;;;;;;6165389;28;20102;-96
2023/12/04 15:42:25;;;;;;;12.18;7.13;;;;;;;;;;6149087;28;20063;-96
2023/12/04 15:45:25;;;;;;;12.65;6.78;;;;;;;;;;6163858;28;20051;-96
2023/12/04 15:48:28;;;;;;;10.95;7.07;;;;;;;;;;6167179;28;20069;-96
2023/12/04 15:51:30;;;;;;;10.95;7.57;;;;;;;;;;6166670;28;20058;-96
2023/12/04 16:01:53;;;;;;;11.65;7.20;;;;;;;;;;6172196;28;20047;-96
2023/12/04 16:04:56;;;;;;;10.05;6.55;;;;;;;;;;6165970;28;20066;-97
2023/12/04 16:08:00;;;;;;;13.63;7.35;;;;;;;;;;6162920;28;20069;-96
2023/12/04 16:11:06;;;;;;;18.77;7.47;;;;;;;;;;6177611;28;20059;-96
2023/12/04 16:14:10;;;;;;;12.45;7.10;;;;;;;;;;6172572;28;20058;-96
2023/12/04 16:17:12;;;;;;;13.15;6.78;;;;;;;;;;6151140;28;20070;-96
2023/12/04 16:20:16;;;;;;;11.82;6.93;;;;;;;;;;6159683;28;20240;-96
2023/12/04 16:23:18;;;;;;;12.27;7.47;;;;;;;;;;6163530;28;20055;-96
2023/12/04 16:26:20;;;;;;;14.05;7.63;;;;;;;;;;6163274;28;20058;-96
2023/12/04 16:29:27;;;;;;;10.38;7.13;;;;;;;;;;6161668;28;20106;-96
2023/12/04 16:32:29;;;;;;;11.23;6.90;;;;;;;;;;6158942;28;20054;-96
2023/12/04 16:35:32;;;;;;;11.60;6.97;;;;;;;;;;6160369;28;20055;-96
2023/12/04 16:38:34;;;;;;;11.88;7.22;;;;;;;;;;6159115;28;20394;-96
2023/12/04 16:41:36;;;;;;;11.32;6.80;;;;;;;;;;6161373;28;20127;-96
2023/12/04 16:44:40;;;;;;;10.90;6.80;;;;;;;;;;6160878;28;20115;-96
2023/12/04 16:48:03;;;;;;;12.07;7.00;;;;;;;;;;6163137;28;20055;-96
2023/12/04 16:51:06;;;;;;;13.32;7.50;;;;;;;;;;6160370;28;20051;-96
2023/12/04 16:54:07;;;;;;;11.05;7.35;;;;;;;;;;6154199;28;20059;-96
2023/12/04 16:57:09;;;;;;;12.68;7.72;;;;;;;;;;6160509;28;20062;-96
2023/12/04 17:03:30;;;;;;;13.70;7.57;;;;;;;;;;6118789;28;20054;-96
2023/12/04 17:06:32;;;;;;;13.30;7.53;;;;;;;;;;6160792;28;20047;-96
2023/12/04 17:09:36;;;;;;;12.80;7.43;;;;;;;;;;6160822;28;20066;-96
2023/12/04 17:12:44;;;;;;;12.80;7.95;;;;;;;;;;6165000;28;20401;-96
2023/12/04 17:15:47;;;;;;;14.23;7.95;;;;;;;;;;6158001;28;20055;-96
2023/12/04 17:18:49;;;;;;;12.60;8.15;;;;;;;;;;6164154;28;20062;-96
2023/12/04 17:21:52;;;;;;;12.63;7.75;;;;;;;;;;6156395;28;20217;-96
2023/12/04 17:24:54;;;;;;;13.57;8.25;;;;;;;;;;6157292;28;20059;-96
2023/12/04 17:27:56;;;;;;;13.68;7.63;;;;;;;;;;6161573;28;20059;-96
2023/12/04 17:34:20;;;;;;;17.20;8.18;;;;;;;;;;6178601;28;20054;-96
2023/12/04 17:37:22;;;;;;;12.85;8.07;;;;;;;;;;6207950;28;20413;-96
2023/12/04 17:40:24;;;;;;;14.77;7.68;;;;;;;;;;6205696;28;20046;-96
2023/12/04 17:43:26;;;;;;;14.00;8.57;;;;;;;;;;6208956;28;20069;-96
2023/12/04 17:49:58;;;;;;;13.20;7.80;;;;;;;;;;6187358;28;20098;-96
2023/12/04 17:53:01;;;;;;;;;;;;;;;;;;6151951;28;20254;-96
2023/12/04 17:56:03;;;;;;;12.35;7.80;;;;;;;;;;6197001;28;20099;-96
2023/12/04 17:59:10;;;;;;;14.77;8.50;;;;;;;;;;6194186;28;20065;-96
2023/12/04 18:02:14;;;;;;;12.80;7.80;;;;;;;;;;6211227;28;20054;-96
2023/12/04 18:05:16;;;;;;;13.02;8.32;;;;;;;;;;6207219;28;20042;-96
2023/12/04 18:08:18;;;;;;;13.68;8.50;;;;;;;;;;6204188;28;20057;-96
2023/12/04 18:11:22;;;;;;;12.73;8.27;;;;;;;;;;6215534;28;20054;-96
2023/12/04 18:14:24;;;;;;;13.82;8.05;;;;;;;;;;6195761;28;20046;-96
2023/12/04 18:17:30;;;;;;;13.93;8.50;;;;;;;;;;6205456;28;20125;-96
2023/12/04 18:20:32;;;;;;;16.40;8.68;;;;;;;;;;6211387;28;20077;-96
2023/12/04 18:23:34;;;;;;;14.80;9.13;;;;;;;;;;6212904;28;20042;-96
2023/12/04 18:26:38;;;;;;;14.52;9.07;;;;;;;;;;6210524;28;20113;-96
2023/12/04 18:29:41;;;;;;;12.93;8.43;;;;;;;;;;6212744;28;20050;-96
2023/12/04 18:32:45;;;;;;;13.65;8.43;;;;;;;;;;6207645;28;20042;-96
2023/12/04 18:36:09;;;;;;;14.82;8.77;;;;;;;;;;6191366;28;20054;-96
2023/12/04 18:39:14;;;;;;;17.83;9.10;;;;;;;;;;6206687;28;20050;-96
2023/12/04 18:42:16;;;;;;;16.20;9.88;;;;;;;;;;6212507;28;20054;-96
2023/12/04 18:45:20;;;;;;;13.43;8.70;;;;;;;;;;6214865;28;20056;-96
2023/12/04 18:48:26;;;;;;;15.80;8.82;;;;;;;;;;6209801;28;20336;-96
2023/12/04 18:51:28;;;;;;;14.73;9.20;;;;;;;;;;6217473;28;20092;-96
2023/12/04 18:54:30;;;;;;;14.30;8.93;;;;;;;;;;6213315;28;20042;-96
2023/12/04 19:01:03;;;;;;;15.82;9.77;;;;;;;;;;6173654;28;20065;-96
2023/12/04 19:07:25;;;;;;;18.83;9.85;;;;;;;;;;6118488;28;20231;-96
2023/12/04 19:13:44;;;;;;;16.52;10.20;;;;;;;;;;6128024;29;20066;-96
2023/12/04 19:16:47;;;;;;;20.95;11.05;;;;;;;;;;6164823;29;20071;-96
2023/12/04 19:23:16;;;;;;;20.23;10.82;;;;;;;;;;6126267;28;20062;-96
2023/12/04 19:29:37;;;;;;;18.27;10.90;;;;;;;;;;6150948;29;20055;-96
2023/12/04 19:32:48;;;;;;;20.98;10.65;;;;;;;;;;7057763;22;20814;31
2023/12/04 20:07:43;;;;;;;19.42;11.38;;;;;;;;;;6188905;28;20060;-96
2023/12/04 20:10:46;;;;;;;22.08;11.63;;;;;;;;;;6205184;28;20050;-96
2023/12/04 20:13:48;;;;;;;18.08;11.70;;;;;;;;;;6185714;28;20125;-96
2023/12/04 20:16:53;;;;;;;22.27;12.27;;;;;;;;;;6188705;28;20058;-96
2023/12/04 20:23:47;;;;;;;19.92;11.77;;;;;;;;;;6210114;28;20378;-96
2023/12/04 20:26:53;;;;;;;22.15;11.98;;;;;;;;;;6174045;28;20042;-96
2023/12/04 20:36:54;;;;;;;21.63;11.50;;;;;;;;;;6179777;28;20066;-96
2023/12/04 20:40:15;;;;;;;18.50;11.57;;;;;;;;;;6184667;28;20089;-96
2023/12/04 20:43:51;;;;;;;19.10;11.50;;;;;;;;;;6167035;28;20058;-96
2023/12/04 22:05:08;;;;;;;24.23;14.02;;;;;;;;;;6761457;22;20054;-96
2023/12/04 22:19:45;;;;;;;25.02;13.95;;;;;;;;;;6124439;29;20043;-96
2023/12/04 22:22:52;;;;;;;25.80;14.18;;;;;;;;;;6100691;29;20040;-96
2023/12/04 22:33:10;;;;;;;22.98;13.73;;;;;;;;;;6147608;28;20051;-96
